Latest Weather Observations for Griffith

IDN60801

Issued at 3:32 pm EST Saturday 28 May 2016 (issued every 30 minutes, with the page automatically refreshed every 10 minutes)

About weather observations | Map of weather stations | Latest weather observations for NSW | Other Formats
Station Details ID: 075041 Name: GRIFFITH AIRPORT AWS Lat: -34.25 Lon: 146.07 Height: 134.0 m
Data from the previous 72 hours. | See also: Recent months at Griffith
Date/Time
EST
Temp
°C
App
Temp
°C
Dew
Point
Rel
Hum
%
Delta-T
°C
Wind Press
QNH
hPa
Press
MSL
hPa
Rain
since 9 am
mm
Dir
 
Spd
km/h
Gust
km/h
Spd
kts
Gust
kts
28/03:00pm 12.1 7.9 8.4 78 1.8 SSW 20 28 11 15 1011.8 1011.8 0.2
28/02:30pm 12.9 9.6 9.4 79 1.8 SW 17 26 9 14 1011.1 1011.1 0.2
28/02:00pm 12.6 10.0 9.2 80 1.7 W 13 20 7 11 1010.6 1010.5 0.2
28/01:35pm 12.1 8.2 9.3 83 1.4 W 20 24 11 13 1010.6 1010.5 0.2
28/01:30pm 12.0 8.6 9.2 83 1.4 W 17 22 9 12 1010.6 1010.5 0.2
28/01:00pm 11.0 7.3 9.4 90 0.8 W 19 24 10 13 1010.5 1010.4 0.2
28/12:50pm 10.7 6.9 9.9 95 0.4 W 20 30 11 16 1010.5 1010.4 0.2
28/12:30pm 10.1 6.3 9.8 98 0.2 W 20 26 11 14 1010.5 1010.4 0.2
28/12:12pm 9.7 5.3 8.9 95 0.4 W 22 30 12 16 1010.7 1010.6 0.2
28/12:07pm 9.8 5.3 8.6 92 0.6 W 22 30 12 16 1010.7 1010.6 0.2
28/12:00pm 10.1 5.9 8.2 88 0.9 W 20 28 11 15 1010.6 1010.5 0.2
28/11:53am 10.1 5.9 8.2 88 0.9 W 20 26 11 14 1010.6 1010.5 0.2
28/11:30am 10.0 6.0 8.3 89 0.8 W 19 26 10 14 1010.6 1010.5 0.2
28/11:00am 9.2 5.7 8.7 97 0.2 WNW 17 24 9 13 1010.6 1010.5 0.2
28/10:59am 9.1 5.6 8.6 97 0.2 WNW 17 22 9 12 1010.6 1010.5 0.2
28/10:30am 9.0 4.7 7.8 92 0.6 W 20 26 11 14 1010.5 1010.4 0.0
28/10:00am 9.4 5.3 7.8 90 0.8 WNW 19 24 10 13 1010.1 1010.0 0.0
28/09:30am 9.2 5.1 8.0 92 0.6 W 19 24 10 13 1009.6 1009.5 0.0
28/09:00am 8.9 4.8 8.0 94 0.4 W 19 22 10 12 1009.3 1009.2 11.8
28/08:30am 8.4 5.0 7.5 94 0.4 W 15 24 8 13 1009.2 1009.1 11.8
28/08:00am 8.3 4.5 7.4 94 0.4 W 17 24 9 13 1008.8 1008.7 11.8
28/07:30am 8.4 4.2 7.3 93 0.5 W 19 26 10 14 1008.6 1008.5 11.8
28/07:03am 8.6 3.9 7.7 94 0.4 W 22 30 12 16 1008.2 1008.1 11.8
28/07:00am 8.6 3.9 7.8 95 0.4 W 22 30 12 16 1008.2 1008.1 11.8
28/06:34am 8.6 4.4 8.2 97 0.2 WNW 20 28 11 15 1007.6 1007.6 11.8
28/06:30am 8.6 4.4 8.2 97 0.2 WNW 20 28 11 15 1007.5 1007.5 11.8
28/06:00am 8.8 4.7 8.7 99 0.0 WNW 20 30 11 16 1007.2 1007.2 11.8
28/05:30am 8.8 4.9 8.7 99 0.0 WNW 19 24 10 13 1007.0 1007.0 11.8
28/05:00am 8.8 4.9 8.7 99 0.0 NW 19 22 10 12 1006.8 1006.8 11.8
28/04:51am 8.8 5.7 8.7 99 0.0 NW 15 19 8 10 1006.8 1006.8 11.8
28/04:30am 8.6 5.8 8.5 99 0.0 NW 13 17 7 9 1006.8 1006.8 11.8
28/04:00am 8.6 5.4 8.5 99 0.0 WNW 15 24 8 13 1006.7 1006.7 11.8
28/03:30am 8.6 5.8 8.5 99 0.0 WNW 13 19 7 10 1006.7 1006.7 11.8
28/03:00am 8.7 5.9 8.6 99 0.0 WNW 13 17 7 9 1006.8 1006.8 11.8
28/02:44am 8.8 6.0 8.7 99 0.0 W 13 19 7 10 1006.7 1006.7 11.8
28/02:30am 8.9 5.8 8.8 99 0.0 W 15 20 8 11 1006.7 1006.7 11.8
28/02:09am 9.3 7.1 9.2 99 0.0 W 11 17 6 9 1006.8 1006.8 11.8
28/02:00am 9.3 7.4 9.2 99 0.0 W 9 13 5 7 1006.8 1006.8 11.8
28/01:40am 9.3 7.1 9.2 99 0.0 W 11 15 6 8 1006.7 1006.7 11.8
28/01:30am 9.4 6.8 9.3 99 0.0 WNW 13 19 7 10 1006.9 1006.9 11.8
28/01:00am 9.6 6.7 9.5 99 0.1 WNW 15 22 8 12 1007.2 1007.2 10.6
28/12:49am 9.7 7.6 9.6 99 0.1 WNW 11 15 6 8 1007.2 1007.2 9.4
28/12:30am 9.8 7.3 9.7 99 0.1 NW 13 17 7 9 1007.4 1007.4 7.2
28/12:00am 10.1 6.8 9.6 97 0.3 N 17 24 9 13 1007.8 1007.8 4.4
 
Date/Time
EST
Temp
°C
App
Temp
°C
Dew
Point
Rel
Hum
%
Delta-T
°C
Wind Press
QNH
hPa
Press
MSL
hPa
Rain
since 9 am
mm
Dir
 
Spd
km/h
Gust
km/h
Spd
kts
Gust
kts
27/11:30pm 10.7 8.8 10.5 99 0.1 NNW 11 17 6 9 1007.7 1007.7 3.8
27/11:00pm 11.2 8.1 10.4 95 0.4 NNW 17 22 9 12 1008.1 1008.0 3.6
27/10:30pm 10.8 8.0 10.0 95 0.4 NNW 15 20 8 11 1008.3 1008.2 3.6
27/10:11pm 11.0 7.1 9.3 89 0.9 NNW 20 26 11 14 1008.4 1008.3 3.0
27/10:00pm 12.4 7.8 8.3 76 2.0 N 22 33 12 18 1008.2 1008.1 0.0
27/09:30pm 12.8 9.3 8.7 76 2.1 N 17 20 9 11 1008.4 1008.3 0.0
27/09:00pm 12.9 9.8 8.8 76 2.1 N 15 20 8 11 1008.6 1008.5 0.0
27/08:30pm 12.8 10.1 8.9 77 2.0 N 13 17 7 9 1009.0 1008.9 0.0
27/08:00pm 12.5 10.2 9.1 80 1.7 N 11 15 6 8 1009.1 1009.0 0.0
27/07:30pm 12.0 9.8 9.4 84 1.3 N 11 13 6 7 1009.0 1008.9 0.0
27/07:00pm 12.0 9.8 9.2 83 1.4 N 11 11 6 6 1009.2 1009.1 0.0
27/06:30pm 12.4 10.6 9.4 82 1.5 N 9 11 5 6 1009.3 1009.2 0.0
27/06:00pm 12.5 11.0 9.1 80 1.7 NNW 7 9 4 5 1009.2 1009.1 0.0
27/05:30pm 12.7 11.3 9.0 78 1.9 NW 6 7 3 4 1008.9 1008.8 0.0
27/05:00pm 13.1 11.7 8.8 75 2.2 WNW 6 7 3 4 1008.9 1008.8 0.0
27/04:30pm 13.8 11.4 8.6 71 2.6 WNW 11 15 6 8 1008.8 1008.7 0.0
27/04:00pm 13.6 10.3 8.0 69 2.8 WNW 15 20 8 11 1008.9 1008.8 0.0
27/03:30pm 14.7 10.3 7.5 62 3.6 WNW 20 28 11 15 1008.7 1008.6 0.0
27/03:00pm 14.6 9.9 7.9 64 3.4 W 22 30 12 16 1008.7 1008.6 0.0
27/02:30pm 13.8 9.5 8.0 68 2.9 W 20 24 11 13 1008.8 1008.7 0.0
27/02:00pm 14.7 10.1 8.2 65 3.3 W 22 32 12 17 1008.8 1008.7 0.0
27/01:30pm 14.3 9.1 8.7 69 2.8 W 26 39 14 21 1009.0 1008.9 0.0
27/01:00pm 12.9 7.7 7.4 69 2.7 W 24 32 13 17 1009.4 1009.3 0.0
27/12:30pm 13.1 7.5 7.3 68 2.8 W 26 35 14 19 1009.6 1009.5 0.0
27/12:00pm 13.6 9.0 8.0 69 2.8 W 22 30 12 16 1009.7 1009.6 0.0
27/11:30am 13.1 9.1 9.0 76 2.1 W 20 30 11 16 1010.0 1009.9 0.0
27/11:00am 12.0 7.9 8.5 79 1.7 W 20 26 11 14 1010.4 1010.3 0.0
27/10:30am 11.1 8.2 8.3 83 1.4 W 13 19 7 10 1010.7 1010.6 0.0
27/10:00am 10.2 7.3 8.0 86 1.1 WNW 13 17 7 9 1010.8 1010.7 0.0
27/09:30am 9.1 6.6 8.0 93 0.5 WNW 11 15 6 8 1010.9 1010.8 0.0
27/09:00am 8.0 5.8 7.9 99 0.0 NW 9 11 5 6 1010.6 1010.5 1.4
27/08:30am 6.6 4.5 6.5 99 0.0 NNW 7 9 4 5 1010.6 1010.5 1.4
27/08:00am 5.6 3.3 5.5 99 0.0 NNW 7 9 4 5 1010.4 1010.3 1.4
27/07:47am 4.5 1.9 4.4 99 0.0 NNW 7 9 4 5 1010.4 1010.3 1.4
27/07:30am 3.7 2.3 3.6 99 0.0 CALM 0 0 0 0 1010.3 1010.2 1.4
27/07:25am 3.4 2.0 3.3 99 0.0 CALM 0 0 0 0 1010.2 1010.1 1.4
27/07:00am 3.7 1.0 3.6 99 0.0 NNW 7 9 4 5 1010.1 1010.0 1.4
27/06:30am 3.6 0.5 3.5 99 0.0 NNW 9 11 5 6 1009.8 1009.7 1.4
27/06:00am 4.2 1.8 4.1 99 0.0 NW 6 9 3 5 1009.6 1009.5 1.4
27/05:30am 4.4 2.0 4.3 99 0.0 WNW 6 9 3 5 1009.4 1009.3 1.4
27/05:00am 4.9 2.0 4.8 99 0.0 WNW 9 11 5 6 1009.6 1009.5 1.4
27/04:30am 5.0 2.5 4.9 99 0.0 NW 7 9 4 5 1009.4 1009.3 1.4
27/04:00am 5.5 3.1 5.4 99 0.0 NW 7 7 4 4 1009.3 1009.2 1.4
27/03:30am 5.5 3.3 5.4 99 0.0 NW 6 7 3 4 1009.3 1009.2 1.4
27/03:00am 5.7 3.4 5.6 99 0.0 NW 7 9 4 5 1009.3 1009.2 1.4
27/02:30am 5.7 3.4 5.6 99 0.0 NW 7 9 4 5 1009.3 1009.2 1.4
27/02:00am 5.7 3.4 5.6 99 0.0 WNW 7 9 4 5 1009.3 1009.2 1.4
27/01:30am 6.0 3.9 5.9 99 0.0 WNW 6 9 3 5 1009.2 1009.1 1.4
27/01:00am 6.3 3.7 6.2 99 0.0 W 9 11 5 6 1009.1 1009.0 1.4
27/12:30am 6.6 4.5 6.5 99 0.0 WNW 7 9 4 5 1009.4 1009.3 1.4
27/12:00am 6.6 4.4 6.2 97 0.2 W 7 11 4 6 1009.2 1009.1 1.4
 
Date/Time
EST
Temp
°C
App
Temp
°C
Dew
Point
Rel
Hum
%
Delta-T
°C
Wind Press
QNH
hPa
Press
MSL
hPa
Rain
since 9 am
mm
Dir
 
Spd
km/h
Gust
km/h
Spd
kts
Gust
kts
26/11:30pm 7.1 4.6 6.5 96 0.3 WNW 9 11 5 6 1009.2 1009.1 1.4
26/11:00pm 7.5 4.6 6.6 94 0.4 WNW 11 13 6 7 1009.2 1009.1 1.4
26/10:30pm 8.2 5.4 7.0 92 0.6 W 11 13 6 7 1008.8 1008.7 1.4
26/10:00pm 9.1 6.0 7.2 88 0.9 W 13 17 7 9 1008.8 1008.7 1.4
26/09:30pm 9.9 6.9 7.5 85 1.2 WSW 13 17 7 9 1008.9 1008.8 1.4
26/09:00pm 10.3 6.9 7.7 84 1.3 WSW 15 19 8 10 1008.7 1008.6 1.4
26/08:30pm 10.4 6.7 7.8 84 1.3 WSW 17 24 9 13 1008.4 1008.3 1.4
26/08:00pm 10.4 6.8 8.2 86 1.1 W 17 24 9 13 1008.2 1008.1 1.4
26/07:30pm 11.1 6.8 8.0 81 1.5 WSW 20 28 11 15 1007.7 1007.7 1.4
26/07:00pm 11.1 7.5 8.3 83 1.4 W 17 24 9 13 1007.3 1007.3 1.4
26/06:30pm 11.5 8.0 8.9 84 1.3 W 17 20 9 11 1006.9 1006.9 1.4
26/06:00pm 11.9 8.6 9.6 86 1.2 W 17 24 9 13 1006.3 1006.3 1.2
26/05:30pm 12.3 8.7 9.7 84 1.3 W 19 24 10 13 1005.8 1005.8 1.2
26/05:00pm 13.6 10.3 11.0 84 1.4 W 19 30 10 16 1005.5 1005.5 1.2
26/04:30pm 13.7 10.0 11.4 86 1.2 W 22 30 12 16 1005.1 1005.1 1.2
26/04:00pm 13.9 10.4 12.3 90 0.9 W 22 32 12 17 1005.1 1005.1 1.2
26/03:30pm 13.8 10.9 12.4 91 0.8 W 19 26 10 14 1004.8 1004.8 1.2
26/03:10pm 13.9 10.2 12.8 93 0.6 W 24 30 13 16 1004.5 1004.4 1.2
26/03:00pm 13.6 9.8 12.3 92 0.7 WSW 24 35 13 19 1004.6 1004.5 1.2
26/02:55pm 13.6 9.3 12.2 91 0.8 W 26 35 14 19 1004.5 1004.4 1.2
26/02:30pm 14.7 11.6 12.2 85 1.4 W 20 28 11 15 1004.3 1004.2 0.0
26/02:00pm 14.6 12.0 12.1 85 1.4 W 17 22 9 12 1004.5 1004.4 0.0
26/01:30pm 13.9 10.5 11.4 85 1.3 W 20 28 11 15 1004.6 1004.5 0.0
26/01:11pm 13.8 10.0 11.1 84 1.4 W 22 32 12 17 1004.8 1004.8 0.0
26/01:00pm 14.2 10.1 11.5 84 1.5 W 24 35 13 19 1004.9 1004.9 0.0
26/12:30pm 13.8 10.9 12.9 94 0.5 W 20 30 11 16 1005.1 1005.1 0.0
26/12:00pm 13.2 9.1 12.6 96 0.3 W 26 35 14 19 1005.4 1005.4 0.0
26/11:30am 13.4 9.2 12.5 94 0.5 WNW 26 32 14 17 1005.7 1005.7 0.0
26/11:00am 13.4 10.5 12.9 97 0.3 WNW 20 30 11 16 1005.9 1005.9 0.0
26/10:30am 13.3 10.5 13.1 99 0.1 WNW 20 26 11 14 1006.0 1006.0 0.0
26/10:00am 12.3 9.2 12.1 99 0.1 W 20 26 11 14 1006.4 1006.4 0.0
26/09:30am 12.1 7.8 11.9 99 0.1 NW 26 37 14 20 1006.0 1006.0 0.0
26/09:00am 11.7 7.6 11.5 99 0.1 NW 24 35 13 19 1005.9 1005.9 12.8
26/08:46am 11.7 8.4 11.5 99 0.1 NW 20 28 11 15 1005.9 1005.9 12.8
26/08:30am 11.4 7.2 11.2 99 0.1 NW 24 33 13 18 1005.9 1005.9 12.4
26/08:19am 11.3 7.5 11.1 99 0.1 NW 22 32 12 17 1006.0 1006.0 12.2
26/08:00am 11.0 7.7 10.8 99 0.1 NNW 19 24 10 13 1006.2 1006.2 12.2
26/07:50am 10.9 7.5 10.7 99 0.1 NNW 19 24 10 13 1006.1 1006.1 12.2
26/07:30am 10.8 7.8 10.6 99 0.1 NW 17 24 9 13 1006.2 1006.2 10.8
26/07:29am 10.8 7.8 10.6 99 0.1 NW 17 24 9 13 1006.2 1006.2 10.8
26/07:02am 10.6 7.2 10.4 99 0.1 NNW 19 24 10 13 1005.9 1005.9 9.4
26/07:00am 10.6 7.5 10.4 99 0.1 NNW 17 24 9 13 1005.8 1005.8 9.2
26/06:30am 10.7 7.3 10.5 99 0.1 NNW 19 24 10 13 1006.2 1006.2 8.8
26/06:19am 10.7 7.7 10.5 99 0.1 NNW 17 22 9 12 1006.3 1006.3 8.6
26/06:00am 10.9 7.9 10.7 99 0.1 NNW 17 22 9 12 1006.2 1006.2 8.6
26/05:30am 10.9 8.7 10.7 99 0.1 NNW 13 17 7 9 1006.5 1006.5 8.4
26/05:00am 10.9 8.3 10.7 99 0.1 N 15 20 8 11 1006.9 1006.9 7.8
26/04:30am 11.0 8.0 10.8 99 0.1 NNW 17 20 9 11 1007.7 1007.7 7.0
26/04:28am 10.9 8.3 10.7 99 0.1 NNW 15 20 8 11 1007.7 1007.7 7.0
26/04:16am 10.9 7.9 10.7 99 0.1 N 17 24 9 13 1007.7 1007.7 6.8
26/04:13am 10.9 7.5 10.7 99 0.1 N 19 24 10 13 1007.6 1007.6 6.8
26/04:00am 10.9 8.3 10.7 99 0.1 NNW 15 20 8 11 1007.9 1007.9 6.6
26/03:58am 10.9 8.3 10.7 99 0.1 NNW 15 20 8 11 1008.1 1008.0 6.6
26/03:30am 10.9 7.5 10.7 99 0.1 NNW 19 24 10 13 1008.6 1008.5 6.2
26/03:00am 10.9 7.9 10.7 99 0.1 NNW 17 24 9 13 1009.1 1009.0 6.2
26/02:50am 10.8 7.4 10.6 99 0.1 NNW 19 24 10 13 1009.3 1009.2 6.2
26/02:30am 10.8 7.8 10.6 99 0.1 NNW 17 20 9 11 1009.5 1009.4 6.2
26/02:27am 10.8 7.8 10.6 99 0.1 NNW 17 24 9 13 1009.6 1009.5 6.2
26/02:00am 10.9 7.3 10.7 99 0.1 NNW 20 28 11 15 1010.0 1009.9 5.6
26/01:42am 10.9 6.9 10.4 97 0.3 NNW 22 28 12 15 1010.1 1010.0 5.4
26/01:30am 11.1 7.4 10.2 94 0.5 N 20 26 11 14 1010.2 1010.1 5.4
26/01:00am 11.0 8.6 10.1 94 0.5 N 13 19 7 10 1010.8 1010.7 5.4
26/12:30am 11.1 9.2 10.6 97 0.3 NNE 11 15 6 8 1011.2 1011.2 5.2
26/12:00am 11.0 9.6 10.8 99 0.1 NE 9 11 5 6 1011.3 1011.3 5.0
 
Date/Time
EST
Temp
°C
App
Temp
°C
Dew
Point
Rel
Hum
%
Delta-T
°C
Wind Press
QNH
hPa
Press
MSL
hPa
Rain
since 9 am
mm
Dir
 
Spd
km/h
Gust
km/h
Spd
kts
Gust
kts
25/11:30pm 11.0 10.5 10.8 99 0.1 ENE 4 7 2 4 1011.9 1011.9 4.8
25/11:00pm 10.9 10.0 10.6 98 0.2 NNW 6 9 3 5 1012.7 1012.7 4.0
25/10:30pm 11.0 9.8 10.4 96 0.3 NNW 7 9 4 5 1012.8 1012.8 2.6
25/10:00pm 11.1 11.2 10.2 94 0.5 CALM 0 0 0 0 1012.6 1012.6 1.4
25/09:30pm 11.2 9.5 10.0 92 0.6 WNW 9 11 5 6 1012.9 1012.9 1.2
25/09:00pm 11.5 8.9 9.2 86 1.2 NW 13 15 7 8 1013.0 1013.0 0.8
25/08:30pm 12.1 10.2 8.9 81 1.6 NNW 9 11 5 6 1013.1 1013.1 0.4
25/08:00pm 12.8 9.9 8.3 74 2.2 NW 13 17 7 9 1013.5 1013.5 0.0
25/07:30pm 14.4 10.6 6.0 57 4.0 NW 15 19 8 10 1013.8 1013.8 0.0
25/07:00pm 14.8 11.8 5.9 55 4.3 NNW 11 15 6 8 1013.4 1013.4 0.0
25/06:30pm 15.1 11.7 6.1 55 4.4 NNW 13 17 7 9 1013.2 1013.2 0.0
25/06:00pm 14.9 12.3 6.2 56 4.2 NNE 9 11 5 6 1013.0 1013.0 0.0
25/05:30pm 15.4 12.4 5.9 53 4.6 N 11 13 6 7 1013.6 1013.6 0.0
25/05:00pm 16.1 12.7 6.0 51 4.9 NNW 13 19 7 10 1014.2 1014.2 0.0
25/04:30pm 16.4 13.0 5.7 49 5.2 NNW 13 17 7 9 1014.4 1014.4 0.0
25/04:00pm 16.7 12.8 5.3 47 5.5 NNW 15 24 8 13 1014.6 1014.6 0.0

Other Formats:

Comma delimited format used in spreadsheet applications
http://www.bom.gov.au/fwo/IDN60801/IDN60801.95704.axf

JavaScript Object Notation format (JSON) in row-major order
http://www.bom.gov.au/fwo/IDN60801/IDN60801.95704.json